Cat Creek, Montana
Current Conditions -  °F | °C
As of 6:35 PM on Monday 20 Oct 2014 (Local Time) from KMVH Reporting Station
Clear Clear  
Wind Chill: 59°   Ceiling: Unl
Heat Index: 59°   Visibility: 10mi
Dew Point: 36°   Wind: 8mph
Humidity: 42%   Direction: 240°WSW
Pressure: 29.87"   Gusts: NA
Location:  47.1145°N, 108.252°W
Report Text: KMVH 210035Z AUTO 24007KT 10SM CLR 15/02 A2987 RMK A01
Loading
Personal Weather Stations






























Interactive Weather Map
Tropical Storm Tracking
New forecast layout! Learn more

10-Day Weather Forecast

Advertisements
Track Severe Weather on mobile